createdAt,value
2022-12-25T00:00:42.240Z,38.13
2022-12-25T00:03:09.491Z,37.13
2022-12-25T00:05:38.706Z,42.33
2022-12-25T00:08:06.241Z,38.67
2022-12-25T00:10:33.709Z,37.53
2022-12-25T00:13:00.897Z,40.60
2022-12-25T00:15:28.274Z,31.77
2022-12-25T00:17:55.450Z,40.03
2022-12-25T00:20:22.606Z,41.03
2022-12-25T00:22:49.789Z,34.77
2022-12-25T00:25:17.060Z,40.20
2022-12-25T00:27:44.288Z,34.90
2022-12-25T00:30:11.625Z,37.73
2022-12-25T00:32:38.816Z,31.37
2022-12-25T00:35:06.309Z,33.67
2022-12-25T00:37:33.500Z,34.50
2022-12-25T00:40:00.662Z,36.13
2022-12-25T00:42:28.490Z,31.67
2022-12-25T00:44:55.678Z,28.57
2022-12-25T00:47:22.914Z,40.17
2022-12-25T00:49:50.214Z,39.57
2022-12-25T00:52:17.355Z,33.50
2022-12-25T00:54:44.606Z,35.50
2022-12-25T00:57:11.805Z,34.23
2022-12-25T00:59:38.945Z,39.40
2022-12-25T01:02:24.807Z,39.93
2022-12-25T01:04:53.151Z,37.90
2022-12-25T01:07:20.656Z,31.10
2022-12-25T01:10:07.348Z,32.33
2022-12-25T01:12:35.568Z,32.50
2022-12-25T01:15:02.794Z,37.70
2022-12-25T01:17:29.985Z,34.20
2022-12-25T01:19:57.231Z,38.10
2022-12-25T01:22:24.403Z,40.30
2022-12-25T01:24:51.592Z,31.87
2022-12-25T01:27:18.797Z,31.87
2022-12-25T01:29:46.753Z,28.87
2022-12-25T01:32:14.346Z,28.40
2022-12-25T01:34:41.591Z,26.67
2022-12-25T01:37:08.823Z,25.13
2022-12-25T01:39:36.012Z,28.47
2022-12-25T01:42:03.535Z,31.57
2022-12-25T01:44:36.660Z,31.93
2022-12-25T01:47:05.023Z,29.07
2022-12-25T01:49:33.827Z,32.63
2022-12-25T01:52:10.643Z,26.77
2022-12-25T01:54:42.509Z,34.77
2022-12-25T01:57:12.677Z,31.13
2022-12-25T01:59:40.440Z,28.63
2022-12-25T02:02:08.098Z,36.97
2022-12-25T02:04:40.984Z,29.10
2022-12-25T02:07:14.837Z,35.57
2022-12-25T02:09:42.610Z,47.67
2022-12-25T02:12:11.670Z,27.10
2022-12-25T02:14:38.939Z,39.50
2022-12-25T02:17:18.224Z,31.03
2022-12-25T02:20:04.123Z,36.57
2022-12-25T02:22:41.735Z,41.43
2022-12-25T02:25:11.535Z,40.47
2022-12-25T02:27:44.640Z,50.37
2022-12-25T02:30:12.321Z,46.50
2022-12-25T02:32:42.563Z,48.07
2022-12-25T02:35:12.808Z,53.63
2022-12-25T02:37:58.807Z,44.37
2022-12-25T02:40:29.482Z,49.67
2022-12-25T02:43:17.527Z,34.97
2022-12-25T02:46:06.363Z,47.17
2022-12-25T02:48:55.117Z,41.90
2022-12-25T02:51:42.264Z,33.00
2022-12-25T02:54:31.747Z,36.13
2022-12-25T02:57:18.855Z,30.47
2022-12-25T03:00:06.650Z,37.03
2022-12-25T03:02:53.355Z,47.73
2022-12-25T03:05:41.310Z,38.13
2022-12-25T03:08:13.120Z,30.23
2022-12-25T03:11:02.628Z,31.33
2022-12-25T03:13:32.824Z,43.20
2022-12-25T03:16:18.616Z,27.40
2022-12-25T03:18:45.970Z,40.50
2022-12-25T03:21:32.158Z,37.50
2022-12-25T03:24:20.322Z,35.00
2022-12-25T03:26:56.651Z,58.10
2022-12-25T03:29:42.458Z,40.30
2022-12-25T03:32:28.360Z,43.87
2022-12-25T03:35:22.897Z,39.77
2022-12-25T03:38:22.281Z,35.30
2022-12-25T03:41:20.986Z,39.87
2022-12-25T03:44:13.522Z,33.77
2022-12-25T03:47:05.129Z,33.73
2022-12-25T03:50:11.052Z,40.00
2022-12-25T03:52:57.776Z,36.40
2022-12-25T03:55:44.616Z,34.60
2022-12-25T03:58:40.950Z,34.93
2022-12-25T04:01:27.195Z,34.10
2022-12-25T04:04:13.440Z,30.30
2022-12-25T04:06:59.946Z,27.77
2022-12-25T04:09:46.021Z,32.20
2022-12-25T04:12:31.912Z,22.27
2022-12-25T04:15:17.887Z,30.03
2022-12-25T04:18:11.196Z,43.37
2022-12-25T04:20:57.458Z,35.00
2022-12-25T04:23:43.689Z,36.63
2022-12-25T04:26:29.341Z,35.80
2022-12-25T04:29:15.449Z,35.57
2022-12-25T04:32:01.164Z,32.07
2022-12-25T04:34:47.097Z,28.83
2022-12-25T04:37:14.299Z,33.43
2022-12-25T04:39:41.618Z,32.60
2022-12-25T04:42:08.782Z,26.13
2022-12-25T04:44:35.922Z,28.03
2022-12-25T04:47:09.155Z,26.90
2022-12-25T04:49:38.282Z,25.53
2022-12-25T04:52:05.554Z,23.23
2022-12-25T04:54:32.770Z,23.17
2022-12-25T04:57:00.177Z,34.07
2022-12-25T04:59:27.347Z,23.97
2022-12-25T05:01:54.604Z,22.90
2022-12-25T05:04:21.961Z,25.07
2022-12-25T05:06:49.109Z,20.90
2022-12-25T05:09:16.291Z,26.50
2022-12-25T05:11:43.487Z,18.27
2022-12-25T05:14:10.634Z,22.40
2022-12-25T05:16:37.911Z,20.13
2022-12-25T05:19:05.071Z,18.00
2022-12-25T05:21:32.210Z,27.07
2022-12-25T05:23:59.367Z,16.73
2022-12-25T05:26:27.060Z,25.30
2022-12-25T05:28:55.046Z,20.03
2022-12-25T05:31:22.312Z,20.73
2022-12-25T05:33:53.029Z,19.93
2022-12-25T05:36:20.398Z,15.53
2022-12-25T05:38:47.552Z,13.40
2022-12-25T05:41:14.760Z,15.27
2022-12-25T05:43:42.055Z,20.37
2022-12-25T05:46:10.584Z,16.40
2022-12-25T05:48:38.642Z,16.87
2022-12-25T05:51:10.240Z,17.13
2022-12-25T05:53:37.510Z,14.10
2022-12-25T05:56:06.017Z,16.50
2022-12-25T05:58:33.841Z,17.80
2022-12-25T06:01:01.087Z,15.57
2022-12-25T06:03:28.584Z,17.70
2022-12-25T06:05:55.934Z,22.00
2022-12-25T06:08:23.096Z,21.00
2022-12-25T06:10:50.260Z,17.90
2022-12-25T06:13:17.567Z,15.40
2022-12-25T06:15:44.739Z,21.93
2022-12-25T06:18:11.906Z,15.20
2022-12-25T06:20:41.232Z,16.77
2022-12-25T06:23:08.600Z,19.60
2022-12-25T06:25:38.825Z,20.17
2022-12-25T06:28:05.993Z,14.73
2022-12-25T06:30:34.023Z,15.70
2022-12-25T06:33:01.232Z,15.90
2022-12-25T06:35:28.460Z,20.37
2022-12-25T06:37:56.697Z,14.30
2022-12-25T06:40:23.874Z,16.93
2022-12-25T06:42:52.644Z,18.53
2022-12-25T06:45:19.859Z,18.80
2022-12-25T06:47:47.060Z,18.87
2022-12-25T06:50:15.199Z,15.77
2022-12-25T06:52:42.341Z,18.10
2022-12-25T06:55:09.905Z,22.03
2022-12-25T06:57:37.186Z,16.63
2022-12-25T07:00:04.968Z,18.17
2022-12-25T07:02:33.648Z,16.40
2022-12-25T07:05:01.416Z,16.93
2022-12-25T07:07:28.615Z,20.47
2022-12-25T07:09:55.990Z,17.40
2022-12-25T07:12:24.277Z,18.43
2022-12-25T07:14:54.086Z,16.83
2022-12-25T07:17:21.894Z,21.77
2022-12-25T07:19:49.391Z,15.47
2022-12-25T07:22:16.900Z,15.67
2022-12-25T07:24:44.103Z,21.63
2022-12-25T07:27:11.438Z,16.67
2022-12-25T07:29:38.635Z,17.77
2022-12-25T07:32:06.171Z,14.87
2022-12-25T07:34:33.550Z,20.43
2022-12-25T07:37:00.851Z,24.07
2022-12-25T07:39:28.090Z,17.47
2022-12-25T07:41:55.305Z,19.97
2022-12-25T07:44:22.522Z,19.23
2022-12-25T07:46:49.714Z,14.93
2022-12-25T07:49:16.861Z,18.17
2022-12-25T07:51:44.046Z,17.47
2022-12-25T07:54:11.245Z,21.63
2022-12-25T07:56:38.411Z,20.50
2022-12-25T07:59:05.616Z,23.90
2022-12-25T08:01:32.859Z,19.37
2022-12-25T08:04:01.353Z,20.37
2022-12-25T08:06:32.777Z,23.90
2022-12-25T08:09:07.099Z,20.20
2022-12-25T08:11:34.329Z,19.00
2022-12-25T08:14:01.542Z,21.27
2022-12-25T08:16:28.827Z,20.53
2022-12-25T08:18:56.002Z,21.13
2022-12-25T08:21:23.154Z,20.33
2022-12-25T08:23:50.343Z,21.23
2022-12-25T08:26:19.532Z,22.50
2022-12-25T08:28:46.820Z,16.80
2022-12-25T08:31:17.143Z,21.67
2022-12-25T08:33:44.456Z,22.83
2022-12-25T08:36:12.358Z,17.83
2022-12-25T08:38:40.072Z,16.87
2022-12-25T08:41:07.560Z,18.67
2022-12-25T08:43:34.852Z,22.63
2022-12-25T08:46:02.072Z,24.07
2022-12-25T08:48:29.674Z,20.87
2022-12-25T08:50:56.893Z,16.83
2022-12-25T08:53:24.140Z,17.53
2022-12-25T08:55:57.275Z,21.60
2022-12-25T08:58:24.546Z,23.83
2022-12-25T09:00:51.705Z,16.83
2022-12-25T09:03:19.086Z,22.67
2022-12-25T09:05:46.937Z,20.40
2022-12-25T09:08:14.179Z,28.07
2022-12-25T09:10:42.326Z,27.00
2022-12-25T09:13:10.390Z,36.10
2022-12-25T09:15:39.092Z,37.03
2022-12-25T09:18:06.653Z,43.10
2022-12-25T09:20:33.952Z,33.43
2022-12-25T09:23:01.162Z,36.60
2022-12-25T09:25:28.392Z,33.93
2022-12-25T09:27:56.795Z,26.53
2022-12-25T09:30:24.083Z,33.87
2022-12-25T09:32:51.321Z,27.23
2022-12-25T09:35:19.012Z,28.53
2022-12-25T09:37:46.264Z,32.47
2022-12-25T09:40:18.873Z,27.40
2022-12-25T09:42:46.447Z,28.90
2022-12-25T09:45:24.973Z,31.83
2022-12-25T09:47:58.861Z,25.73
2022-12-25T09:50:44.886Z,28.50
2022-12-25T09:53:26.258Z,24.37
2022-12-25T09:56:04.766Z,20.70
2022-12-25T09:58:33.749Z,24.73
2022-12-25T10:01:15.275Z,28.43
2022-12-25T10:03:49.013Z,22.53
2022-12-25T10:06:19.061Z,16.10
2022-12-25T10:09:04.432Z,22.13
2022-12-25T10:11:43.489Z,20.60
2022-12-25T10:14:19.545Z,26.20
2022-12-25T10:16:54.346Z,21.57
2022-12-25T10:19:35.841Z,21.30
2022-12-25T10:22:04.585Z,17.80
2022-12-25T10:24:31.771Z,18.07
2022-12-25T10:27:00.496Z,22.00
2022-12-25T10:29:31.212Z,16.60
2022-12-25T10:31:58.550Z,20.47
2022-12-25T10:34:27.718Z,25.43
2022-12-25T10:36:55.194Z,25.80
2022-12-25T10:39:24.699Z,21.33
2022-12-25T10:41:51.867Z,26.13
2022-12-25T10:44:20.712Z,24.07
2022-12-25T10:46:51.688Z,23.60
2022-12-25T10:49:21.341Z,24.93
2022-12-25T10:51:48.757Z,20.90
2022-12-25T10:54:22.004Z,22.63
2022-12-25T10:56:55.891Z,24.23
2022-12-25T10:59:23.273Z,24.60
2022-12-25T11:01:55.030Z,21.30
2022-12-25T11:04:25.295Z,24.83
2022-12-25T11:06:58.657Z,30.93
2022-12-25T11:09:26.205Z,26.77
2022-12-25T11:11:53.493Z,30.43
2022-12-25T11:14:22.728Z,36.97
2022-12-25T11:16:50.533Z,27.17
2022-12-25T11:19:31.074Z,28.30
2022-12-25T11:21:59.627Z,26.70
2022-12-25T11:24:28.373Z,42.30
2022-12-25T11:26:59.908Z,44.70
2022-12-25T11:29:45.757Z,43.97
2022-12-25T11:32:22.063Z,29.17
2022-12-25T11:34:49.788Z,38.70
2022-12-25T11:37:39.242Z,32.80
2022-12-25T11:40:07.483Z,37.67
2022-12-25T11:42:38.848Z,36.93
2022-12-25T11:45:07.383Z,37.27
2022-12-25T11:47:37.662Z,39.27
2022-12-25T11:50:14.955Z,35.90
2022-12-25T11:52:46.141Z,43.60
2022-12-25T11:55:21.558Z,40.30
2022-12-25T11:57:52.182Z,43.90
2022-12-25T12:00:20.008Z,43.20
2022-12-25T12:02:51.997Z,42.63
2022-12-25T12:05:25.595Z,42.43
2022-12-25T12:08:00.487Z,49.47
2022-12-25T12:10:27.611Z,39.33
2022-12-25T12:12:57.645Z,42.87
2022-12-25T12:15:36.783Z,50.30
2022-12-25T12:18:10.900Z,40.70
2022-12-25T12:20:38.250Z,44.07
2022-12-25T12:23:11.919Z,41.93
2022-12-25T12:25:40.593Z,35.47
2022-12-25T12:28:13.862Z,37.80
2022-12-25T12:30:41.015Z,28.27
2022-12-25T12:33:08.650Z,32.53
2022-12-25T12:35:39.769Z,34.97
2022-12-25T12:38:17.625Z,42.67
2022-12-25T12:40:55.631Z,43.27
2022-12-25T12:43:43.193Z,45.37
2022-12-25T12:46:16.739Z,37.03
2022-12-25T12:48:45.851Z,41.10
2022-12-25T12:51:14.308Z,38.90
2022-12-25T12:53:42.321Z,34.80
2022-12-25T12:56:19.908Z,37.33
2022-12-25T12:58:51.201Z,34.77
2022-12-25T13:01:27.418Z,35.90
2022-12-25T13:04:01.047Z,39.23
2022-12-25T13:06:34.479Z,31.47
2022-12-25T13:09:10.179Z,28.83
2022-12-25T13:11:40.883Z,37.87
2022-12-25T13:14:14.366Z,47.80
2022-12-25T13:16:42.392Z,36.47
2022-12-25T13:19:13.580Z,33.10
2022-12-25T13:21:40.939Z,28.77
2022-12-25T13:24:19.427Z,35.00
2022-12-25T13:26:46.905Z,38.57
2022-12-25T13:29:24.674Z,34.17
2022-12-25T13:31:51.911Z,40.20
2022-12-25T13:34:19.103Z,33.37
2022-12-25T13:36:46.239Z,35.43
2022-12-25T13:39:16.524Z,31.33
2022-12-25T13:42:06.260Z,29.80
2022-12-25T13:44:53.690Z,41.73
2022-12-25T13:47:40.804Z,35.67
2022-12-25T13:50:21.345Z,38.87
2022-12-25T13:52:48.744Z,44.87
2022-12-25T13:55:16.075Z,41.70
2022-12-25T13:57:43.265Z,40.77
2022-12-25T14:00:22.003Z,33.47
2022-12-25T14:02:49.404Z,33.27
2022-12-25T14:05:27.773Z,36.53
2022-12-25T14:07:55.827Z,39.90
2022-12-25T14:10:23.887Z,39.63
2022-12-25T14:12:51.834Z,41.83
2022-12-25T14:15:21.402Z,39.67
2022-12-25T14:17:49.564Z,41.30
2022-12-25T14:20:26.112Z,45.37
2022-12-25T14:22:57.415Z,37.63
2022-12-25T14:25:44.870Z,34.93
2022-12-25T14:28:23.230Z,42.47
2022-12-25T14:30:50.533Z,45.70
2022-12-25T14:33:24.859Z,41.57
2022-12-25T14:35:52.320Z,41.20
2022-12-25T14:38:24.921Z,40.83
2022-12-25T14:41:02.236Z,36.23
2022-12-25T14:43:30.366Z,37.47
2022-12-25T14:45:59.048Z,34.30
2022-12-25T14:48:27.571Z,37.30
2022-12-25T14:51:03.207Z,38.23
2022-12-25T14:53:50.627Z,38.67
2022-12-25T14:56:20.187Z,40.43
2022-12-25T14:58:52.392Z,38.83
2022-12-25T15:01:31.230Z,40.13
2022-12-25T15:04:24.617Z,45.50
2022-12-25T15:07:07.645Z,35.57
2022-12-25T15:09:36.892Z,47.53
2022-12-25T15:12:04.148Z,42.27
2022-12-25T15:14:31.754Z,53.50
2022-12-25T15:17:00.522Z,54.73
2022-12-25T15:19:36.513Z,44.10
2022-12-25T15:22:04.618Z,45.57
2022-12-25T15:24:31.782Z,55.67
2022-12-25T15:27:00.741Z,47.73
2022-12-25T15:30:07.425Z,41.83
2022-12-25T15:32:24.137Z,39.23
2022-12-25T15:34:52.912Z,45.93
2022-12-25T15:37:20.125Z,42.70
2022-12-25T15:39:47.434Z,43.00
2022-12-25T15:42:16.090Z,43.50
2022-12-25T15:44:43.791Z,43.33
2022-12-25T15:47:11.903Z,49.30
2022-12-25T15:49:39.495Z,48.63
2022-12-25T15:52:08.289Z,42.83
2022-12-25T15:54:35.666Z,45.80
2022-12-25T15:57:05.168Z,41.47
2022-12-25T15:59:32.811Z,48.17
2022-12-25T16:02:02.029Z,54.10
2022-12-25T16:04:31.328Z,45.73
2022-12-25T16:06:59.333Z,52.73
2022-12-25T16:09:27.631Z,57.03
2022-12-25T16:11:54.986Z,49.67
2022-12-25T16:14:22.154Z,51.77
2022-12-25T16:16:49.336Z,49.67
2022-12-25T16:19:16.560Z,49.27
2022-12-25T16:21:44.942Z,47.50
2022-12-25T16:24:12.319Z,43.50
2022-12-25T16:26:39.693Z,48.73
2022-12-25T16:29:07.657Z,50.70
2022-12-25T16:31:35.749Z,52.20
2022-12-25T16:34:03.553Z,41.20
2022-12-25T16:36:30.915Z,47.70
2022-12-25T16:38:58.089Z,52.43
2022-12-25T16:41:32.314Z,40.37
2022-12-25T16:44:00.061Z,71.93
2022-12-25T16:46:46.110Z,54.40
2022-12-25T16:49:13.331Z,42.80
2022-12-25T16:51:40.595Z,42.83
2022-12-25T16:54:07.828Z,44.63
2022-12-25T16:56:36.710Z,44.47
2022-12-25T16:59:04.034Z,49.37
2022-12-25T17:01:31.339Z,36.23
2022-12-25T17:04:01.646Z,39.30
2022-12-25T17:06:29.628Z,42.57
2022-12-25T17:08:57.827Z,39.10
2022-12-25T17:11:29.482Z,41.53
2022-12-25T17:13:57.442Z,40.87
2022-12-25T17:16:25.858Z,47.23
2022-12-25T17:18:57.254Z,50.67
2022-12-25T17:21:24.964Z,39.10
2022-12-25T17:23:56.496Z,44.40
2022-12-25T17:26:28.127Z,51.83
2022-12-25T17:28:56.352Z,40.93
2022-12-25T17:31:23.901Z,54.90
2022-12-25T17:33:51.059Z,52.87
2022-12-25T17:36:19.320Z,42.93
2022-12-25T17:38:47.550Z,49.87
2022-12-25T17:41:15.919Z,54.63
2022-12-25T17:43:45.669Z,44.27
2022-12-25T17:46:18.202Z,51.23
2022-12-25T17:48:46.176Z,46.63
2022-12-25T17:51:14.611Z,48.73
2022-12-25T17:53:42.884Z,52.90
2022-12-25T17:56:10.598Z,50.13
2022-12-25T17:58:38.337Z,50.47
2022-12-25T18:01:08.218Z,52.00
2022-12-25T18:03:36.838Z,51.37
2022-12-25T18:06:08.157Z,51.30
2022-12-25T18:08:39.328Z,54.37
2022-12-25T18:11:08.287Z,50.93
2022-12-25T18:13:35.490Z,49.03
2022-12-25T18:16:06.482Z,50.80
2022-12-25T18:18:34.333Z,51.47
2022-12-25T18:21:02.227Z,50.30
2022-12-25T18:23:29.757Z,49.07
2022-12-25T18:26:02.143Z,49.70
2022-12-25T18:28:29.455Z,52.23
2022-12-25T18:30:57.177Z,55.53
2022-12-25T18:33:24.813Z,51.97
2022-12-25T18:35:57.059Z,57.63
2022-12-25T18:38:24.237Z,57.60
2022-12-25T18:40:51.418Z,48.53
2022-12-25T18:43:18.633Z,53.87
2022-12-25T18:45:46.063Z,53.23
2022-12-25T18:48:13.311Z,54.93
2022-12-25T18:50:41.406Z,57.77
2022-12-25T18:53:08.729Z,54.70
2022-12-25T18:55:35.934Z,49.77
2022-12-25T18:58:03.251Z,51.77
2022-12-25T19:00:30.528Z,49.00
2022-12-25T19:02:59.002Z,46.90
2022-12-25T19:05:26.914Z,56.33
2022-12-25T19:07:54.150Z,48.10
2022-12-25T19:10:21.359Z,57.77
2022-12-25T19:12:48.524Z,50.07
2022-12-25T19:15:15.715Z,51.80
2022-12-25T19:17:42.883Z,51.20
2022-12-25T19:20:10.942Z,50.80
2022-12-25T19:22:38.307Z,64.37
2022-12-25T19:25:05.728Z,60.40
2022-12-25T19:27:32.918Z,62.87
2022-12-25T19:30:00.176Z,59.30
2022-12-25T19:32:27.386Z,59.47
2022-12-25T19:34:54.687Z,52.83
2022-12-25T19:37:21.879Z,60.70
2022-12-25T19:39:49.277Z,57.57
2022-12-25T19:42:16.866Z,60.33
2022-12-25T19:44:44.337Z,59.43
2022-12-25T19:47:11.686Z,58.40
2022-12-25T19:49:40.687Z,49.63
2022-12-25T19:52:08.067Z,54.63
2022-12-25T19:54:35.256Z,53.53
2022-12-25T19:57:02.452Z,51.27
2022-12-25T19:59:29.676Z,45.30
2022-12-25T20:01:56.981Z,56.50
2022-12-25T20:04:24.364Z,48.80
2022-12-25T20:06:51.532Z,52.27
2022-12-25T20:09:21.581Z,46.77
2022-12-25T20:11:49.569Z,50.97
2022-12-25T20:14:17.955Z,51.73
2022-12-25T20:16:45.348Z,50.77
2022-12-25T20:19:13.373Z,53.60
2022-12-25T20:21:40.738Z,54.80
2022-12-25T20:24:10.164Z,52.70
2022-12-25T20:26:38.135Z,51.70
2022-12-25T20:29:05.376Z,48.20
2022-12-25T20:31:34.109Z,42.13
2022-12-25T20:34:04.904Z,51.87
2022-12-25T20:36:36.736Z,47.10
2022-12-25T20:39:05.571Z,51.40
2022-12-25T20:41:33.312Z,52.33
2022-12-25T20:44:01.970Z,52.90
2022-12-25T20:46:29.423Z,48.10
2022-12-25T20:48:56.773Z,41.13
2022-12-25T20:51:24.752Z,47.40
2022-12-25T20:53:52.229Z,43.87
2022-12-25T20:56:20.806Z,45.40
2022-12-25T20:58:47.959Z,43.10
2022-12-25T21:01:17.193Z,44.23
2022-12-25T21:03:45.067Z,47.30
2022-12-25T21:06:12.817Z,50.17
2022-12-25T21:08:41.167Z,44.93
2022-12-25T21:11:09.082Z,45.93
2022-12-25T21:13:37.880Z,45.27
2022-12-25T21:16:06.121Z,42.50
2022-12-25T21:18:34.014Z,46.57
2022-12-25T21:21:05.624Z,49.10
2022-12-25T21:23:33.743Z,46.73
2022-12-25T21:26:01.316Z,43.70
2022-12-25T21:28:30.617Z,41.67
2022-12-25T21:31:02.378Z,48.03
2022-12-25T21:33:48.497Z,41.40
2022-12-25T21:36:15.708Z,43.43
2022-12-25T21:38:43.165Z,42.97
2022-12-25T21:41:11.529Z,43.33
2022-12-25T21:43:42.490Z,42.80
2022-12-25T21:46:11.195Z,42.13
2022-12-25T21:48:38.783Z,41.47
2022-12-25T21:51:26.325Z,39.80
2022-12-25T21:53:53.733Z,45.77
2022-12-25T21:56:20.958Z,42.87
2022-12-25T21:58:48.154Z,47.97
2022-12-25T22:01:16.843Z,39.23
2022-12-25T22:03:46.213Z,46.73
2022-12-25T22:06:32.491Z,45.83
2022-12-25T22:09:00.003Z,40.03
2022-12-25T22:11:46.595Z,44.23
2022-12-25T22:14:51.585Z,41.73
2022-12-25T22:17:45.541Z,34.60
2022-12-25T22:20:15.335Z,45.57
2022-12-25T22:22:42.789Z,38.60
2022-12-25T22:25:10.826Z,35.90
2022-12-25T22:27:39.207Z,33.63
2022-12-25T22:30:08.131Z,37.17
2022-12-25T22:32:38.055Z,33.77
2022-12-25T22:35:05.506Z,38.23
2022-12-25T22:37:32.680Z,35.47
2022-12-25T22:40:02.365Z,36.40
2022-12-25T22:42:29.961Z,33.00
2022-12-25T22:44:57.835Z,32.87
2022-12-25T22:47:25.156Z,38.63
2022-12-25T22:49:52.368Z,33.73
2022-12-25T22:52:19.904Z,35.47
2022-12-25T22:54:47.223Z,29.77
2022-12-25T22:57:15.062Z,36.00
2022-12-25T22:59:42.392Z,35.90
2022-12-25T23:02:09.733Z,31.50
2022-12-25T23:04:37.031Z,35.23
2022-12-25T23:07:04.235Z,30.33
2022-12-25T23:09:31.534Z,30.93
2022-12-25T23:12:00.398Z,33.67
2022-12-25T23:14:40.358Z,24.80
2022-12-25T23:17:29.197Z,32.73
2022-12-25T23:20:15.859Z,28.43
2022-12-25T23:23:03.000Z,34.00
2022-12-25T23:25:49.401Z,32.77
2022-12-25T23:28:36.830Z,29.57
2022-12-25T23:31:04.429Z,32.87
2022-12-25T23:33:31.770Z,25.90
2022-12-25T23:35:59.005Z,26.67
2022-12-25T23:38:26.333Z,24.87
2022-12-25T23:40:53.515Z,25.57
2022-12-25T23:43:20.665Z,27.17
2022-12-25T23:45:48.018Z,34.70
2022-12-25T23:48:15.171Z,24.43
2022-12-25T23:50:42.459Z,29.53
2022-12-25T23:53:10.969Z,23.87
2022-12-25T23:55:38.254Z,23.73
2022-12-25T23:58:05.641Z,21.00
